East Orleans, MA

3:43 PM EDT on May 05, 2015 (GMT -0400)
Nauset Heights Bluff | | Change Station
CLOSE
Current Station
Personal Weather Station
Location: Orleans, MA
Elevation: 40 ft
Nearby Weather Stations

Elev 40 ft 41.80 °N, 69.94 °W | Updated 50 seconds ago

Overcast
Overcast
61.1 °F
Feels Like 61.1 °F
N
2.0
Wind Variable Wind from East
Gusts 0.0 mph

Today
High -- | Low -- °F
--% Chance of Precip.
Yesterday
High -- | Low -- °F
Precip. -- in
5:31 AM 7:42 PM
Full, 97% visible
Pressure 30.22 in
Visibility 10.0 miles
Clouds Overcast 7500 ft
Dew Point 54 °F
Humidity 79%
Rainfall 0.00 in
Snow Depth Not available.
UV 2 out of 12
Pollen 9.30 out of 12
Air Quality Not available.
Flu Activity Widespread
METAR KCQX 051852Z AUTO 08005KT 10SM OVC075 18/12 A3021 RMK AO2 SLP231 T01780122

More Conditions Fewer Conditions

Pressure 30.22 in
Visibility 10.0 miles
Clouds Overcast 7500 ft
Dew Point 54 °F
Humidity 79%
Rainfall 0.00 in
Snow Depth Not available.
UV 2 out of 12
Pollen 9.30 out of 12
Air Quality Not available.
Flu Activity Widespread
METAR KCQX 051852Z AUTO 08005KT 10SM OVC075 18/12 A3021 RMK AO2 SLP231 T01780122

More Conditions Fewer Conditions

10-Day Weather Forecast

Almanac

Astronomy

May. 05, 2015 Rise Set
Actual Time
Civil Twilight
Nautical Twilight
Astronomical Twilight
Moon
Length of Visible Light
Length of Day
Tomorrow will be .
, % of the Moon is Illuminated

Today's Extremes

State Highs State Lows

Community

WunderPhotos

Upload Photos

1,818,957 photos uploaded!

WunderBlogs® & News

Nearby

Air Quality

  Air Quality AQ Index Pollutant
Not available.

Snow Depth

Station Depth Elevation

Earthquake Activity

City Distance Mag. Time & Date
Minimum magnitude displayed is 2.5.

Coastal Water Temperatures

Place Temperature

Stations

Nearby Weather Stations

Station Location Temp. Windchill Dew Point Humidity Wind Precip. Elev Updated Type